Time;durP1;ratioP1;P1;durP2;ratioP2;P2;SDS_P1;SDS_P2;PMS_P1;PMS_P2;Temp;Humidity;BMP_temperature;BMP_pressure;BME280_temperature;BME280_humidity;BME280_pressure;Samples;Min_cycle;Max_cycle;Signal;HPM_P1;HPM_P2
2023/03/14 00:01:17;;;;;;;;;;;12.60;96.60;;;13.01;65.02;97074.59;4971467;28;124048;-80
2023/03/14 00:03:43;;;;;;;;;;;12.60;96.60;;;13.00;64.56;97081.28;4971809;28;109961;-79
2023/03/14 00:06:10;;;;;;;;;;;12.60;96.60;;;13.02;64.91;97076.19;4972091;28;108735;-79
2023/03/14 00:08:37;;;;;;;;;;;12.70;96.70;;;13.03;64.97;97078.59;4970356;28;124142;-78
2023/03/14 00:11:10;;;;;;;;;;;12.70;96.70;;;13.02;65.43;97099.16;4971165;28;124001;-81
2023/03/14 00:13:36;;;;;;;;;;;12.70;96.90;;;13.01;65.47;97085.66;4954788;28;109884;-82
2023/03/14 00:16:09;;;;;;;;;;;12.60;97.10;;;12.97;65.33;97073.72;4967053;28;108946;-79
2023/03/14 00:18:36;;;;;;;;;;;12.60;97.00;;;12.96;65.52;97077.66;4967292;28;124656;-78
2023/03/14 00:21:05;;;;;;;;;;;12.60;97.00;;;12.95;65.46;97067.72;4972880;28;123959;-79
2023/03/14 00:23:35;;;;;;;;;;;12.60;97.00;;;12.93;65.35;97059.81;4970189;28;108622;-84
2023/03/14 00:26:10;;;;;;;;;;;12.60;97.10;;;12.96;65.12;97044.41;4987194;28;108723;-84
2023/03/14 00:28:36;;;;;;;;;;;12.60;97.00;;;12.97;65.18;97032.13;4965369;28;123371;-84
2023/03/14 00:31:07;;;;;;;;;;;12.60;97.00;;;12.98;65.53;97047.59;4971362;28;123651;-83
2023/03/14 00:33:34;;;;;;;;;;;12.60;97.10;;;12.96;65.35;97050.75;4960264;28;109605;-84
2023/03/14 00:36:06;;;;;;;;;;;12.60;97.20;;;12.96;65.45;97058.25;5003427;28;109216;-85
2023/03/14 00:38:32;;;;;;;;;;;12.50;97.10;;;12.94;65.35;97063.38;5003506;28;123857;-82
2023/03/14 00:40:59;;;;;;;;;;;12.50;97.10;;;12.91;65.35;97070.44;4969250;28;123888;-82
2023/03/14 00:43:25;;;;;;;;;;;12.50;97.00;;;12.88;65.46;97068.41;4970581;28;110442;-80
2023/03/14 00:45:52;;;;;;;;;;;12.50;97.00;;;12.86;65.46;97058.88;4972871;28;109847;-83
2023/03/14 00:48:19;;;;;;;;;;;12.50;97.00;;;12.85;65.26;97063.63;4970723;28;124439;-80
2023/03/14 00:50:46;;;;;;;;;;;12.50;97.10;;;12.85;65.45;97054.50;4969569;28;123943;-80
2023/03/14 00:53:12;;;;;;;;;;;12.50;97.20;;;12.79;65.48;97054.81;4998974;28;109255;-80
2023/03/14 00:55:42;;;;;;;;;;;12.50;97.10;;;12.79;65.78;97068.69;4971971;28;108459;-80
2023/03/14 00:58:10;;;;;;;;;;;12.40;97.20;;;12.79;65.74;97071.44;4970834;28;124756;-79
2023/03/14 01:00:36;;;;;;;;;;;12.40;97.30;;;12.76;65.69;97072.19;4973649;28;123605;-85
2023/03/14 01:03:03;;;;;;;;;;;12.40;97.20;;;12.78;65.33;97069.03;4970532;28;109769;-83
2023/03/14 01:05:30;;;;;;;;;;;12.40;97.20;;;12.78;65.38;97080.91;4967204;28;107622;-79
2023/03/14 01:07:56;;;;;;;;;;;12.40;97.20;;;12.80;65.62;97086.09;4971124;28;123389;-83
2023/03/14 01:10:23;;;;;;;;;;;12.40;97.20;;;12.79;65.24;97092.81;4970161;28;124489;-82
2023/03/14 01:12:49;;;;;;;;;;;12.40;97.20;;;12.80;65.46;97091.66;4972408;28;108949;-85
2023/03/14 01:15:16;;;;;;;;;;;12.40;97.30;;;12.79;65.47;97106.69;4979899;28;107725;-85
2023/03/14 01:17:44;;;;;;;;;;;12.40;97.20;;;12.78;65.32;97086.47;4971726;28;124156;-85
2023/03/14 01:20:12;;;;;;;;;;;12.40;97.20;;;12.78;65.39;97078.16;4990159;28;123200;-86
2023/03/14 01:22:39;;;;;;;;;;;12.40;97.20;;;12.78;65.41;97078.16;4956064;28;108545;-86
2023/03/14 01:25:08;;;;;;;;;;;12.40;97.20;;;12.80;65.18;97072.25;4972580;28;109774;-85
2023/03/14 01:27:34;;;;;;;;;;;12.40;97.10;;;12.81;65.15;97058.03;4974354;28;124320;-85
2023/03/14 01:30:02;;;;;;;;;;;12.40;97.10;;;12.83;65.17;97041.81;4973548;28;123840;-85
2023/03/14 01:32:28;;;;;;;;;;;12.50;97.10;;;12.85;64.84;97027.59;4970336;28;110294;-83
2023/03/14 01:34:54;;;;;;;;;;;12.50;97.10;;;12.87;64.96;97033.56;4956887;28;109325;-83
2023/03/14 01:37:20;;;;;;;;;;;12.50;97.00;;;12.89;64.77;97028.44;4971596;28;124544;-82
2023/03/14 01:39:47;;;;;;;;;;;12.50;96.90;;;12.90;64.43;97023.72;4968718;28;123143;-83
2023/03/14 01:42:15;;;;;;;;;;;12.50;96.80;;;12.90;64.29;97013.44;4969697;28;109400;-84
2023/03/14 01:44:56;;;;;;;;;;;12.50;96.70;;;12.92;64.54;96993.63;4977413;28;108793;-83
2023/03/14 01:47:23;;;;;;;;;;;12.50;96.70;;;12.95;64.28;96995.66;4972370;28;123780;-84
2023/03/14 01:49:58;;;;;;;;;;;12.60;96.70;;;12.96;64.01;96980.63;4970884;28;124597;-83
2023/03/14 01:52:33;;;;;;;;;;;12.60;96.60;;;12.97;64.21;96979.47;4988813;28;108043;-84
2023/03/14 01:55:04;;;;;;;;;;;12.60;96.50;;;12.98;64.04;96981.06;4969778;28;108937;-84
2023/03/14 01:57:34;;;;;;;;;;;12.60;96.40;;;12.99;64.01;96990.97;4968580;28;124197;-79
2023/03/14 02:00:05;;;;;;;;;;;12.60;96.40;;;13.01;63.54;96977.56;4970037;28;123867;-79
2023/03/14 02:02:32;;;;;;;;;;;12.60;96.30;;;13.00;63.40;96975.94;4970609;28;109443;-78
2023/03/14 02:04:59;;;;;;;;;;;12.60;96.10;;;12.96;62.71;96981.44;4988101;28;107622;-77
2023/03/14 02:07:25;;;;;;;;;;;12.60;95.90;;;12.93;62.66;96987.72;4985719;28;124173;-81
2023/03/14 02:09:52;;;;;;;;;;;12.60;95.70;;;12.90;62.39;96980.16;4971410;28;123867;-80
2023/03/14 02:12:20;;;;;;;;;;;12.50;95.60;;;12.87;62.33;96980.91;4984795;28;109379;-80
2023/03/14 02:14:47;;;;;;;;;;;12.50;95.50;;;12.86;62.47;96989.59;4969326;28;108991;-86
2023/03/14 02:17:16;;;;;;;;;;;12.50;95.50;;;12.84;62.29;96978.84;4985409;28;124011;-83
2023/03/14 02:20:00;;;;;;;;;;;12.50;95.50;;;12.85;62.46;96988.00;4968474;28;124021;-83
2023/03/14 02:22:27;;;;;;;;;;;12.50;95.60;;;12.80;62.63;96984.34;4968972;28;110281;-80
2023/03/14 02:25:29;;;;;;;;;;;12.50;95.60;;;12.80;62.97;96981.59;4971994;28;109970;-82
2023/03/14 02:27:55;;;;;;;;;;;12.50;95.80;;;12.78;63.04;96970.06;4934208;28;124024;-82
2023/03/14 02:30:27;;;;;;;;;;;12.40;95.80;;;12.78;63.23;96961.75;4977039;28;124223;-81
2023/03/14 02:33:05;;;;;;;;;;;12.40;95.90;;;12.79;63.15;96932.09;4970597;28;109354;-82
2023/03/14 02:35:52;;;;;;;;;;;12.40;96.00;;;12.76;63.65;96947.50;4970992;28;109235;-82
2023/03/14 02:38:35;;;;;;;;;;;12.40;96.10;;;12.74;63.47;96935.97;4966163;28;124405;-83
2023/03/14 02:41:02;;;;;;;;;;;12.40;96.20;;;12.71;63.78;96945.03;4971680;28;123184;-81
2023/03/14 02:43:28;;;;;;;;;;;12.40;96.20;;;12.70;63.85;96939.84;4988420;28;109644;-82
2023/03/14 02:45:55;;;;;;;;;;;12.30;96.20;;;12.69;64.02;96944.59;4972279;28;108473;-81
2023/03/14 02:48:27;;;;;;;;;;;12.40;96.40;;;12.67;64.01;96927.53;4957501;28;123227;-81
2023/03/14 02:50:58;;;;;;;;;;;12.30;96.30;;;12.64;64.00;96928.28;4969065;28;123726;-85
2023/03/14 02:53:35;;;;;;;;;;;12.30;96.30;;;12.62;64.08;96932.59;4972843;28;109778;-83
2023/03/14 02:56:03;;;;;;;;;;;12.30;96.50;;;12.57;64.38;96912.38;4972772;28;108358;-82
2023/03/14 02:58:30;;;;;;;;;;;12.20;96.50;;;12.55;64.38;96906.38;4988098;28;123231;-84
2023/03/14 03:00:57;;;;;;;;;;;12.20;96.60;;;12.55;64.42;96919.44;4963696;28;124546;-82
2023/03/14 03:03:23;;;;;;;;;;;12.10;96.50;;;12.51;64.28;96907.50;4973093;28;109334;-82
2023/03/14 03:05:51;;;;;;;;;;;12.20;96.50;;;12.48;64.12;96888.84;4963004;28;108772;-80
2023/03/14 03:08:19;;;;;;;;;;;12.10;96.50;;;12.49;64.03;96882.13;4977234;28;124300;-79
2023/03/14 03:10:46;;;;;;;;;;;12.10;96.40;;;12.45;63.79;96900.69;4990616;28;124147;-79
2023/03/14 03:13:12;;;;;;;;;;;12.00;96.30;;;12.45;63.75;96875.75;4970353;28;110361;-79
2023/03/14 03:15:39;;;;;;;;;;;12.00;96.20;;;12.43;63.11;96875.31;4969465;28;109591;-80
2023/03/14 03:18:06;;;;;;;;;;;12.00;96.00;;;12.41;62.84;96858.28;4975403;28;123507;-79
2023/03/14 03:20:32;;;;;;;;;;;12.00;95.80;;;12.40;62.95;96856.69;4970692;28;122791;-83
2023/03/14 03:22:59;;;;;;;;;;;12.00;95.80;;;12.39;62.50;96855.88;4995269;28;109257;-80
2023/03/14 03:25:26;;;;;;;;;;;12.00;95.60;;;12.38;62.44;96868.13;4985312;28;108999;-81
2023/03/14 03:27:53;;;;;;;;;;;12.00;95.60;;;12.38;62.88;96855.09;4954314;28;124127;-85
2023/03/14 03:30:19;;;;;;;;;;;12.00;95.60;;;12.38;62.24;96859.81;4987883;28;123894;-84
2023/03/14 03:32:46;;;;;;;;;;;12.00;95.40;;;12.37;61.84;96872.06;4970665;28;109139;-84
2023/03/14 03:35:12;;;;;;;;;;;12.00;95.20;;;12.34;61.46;96842.34;4960808;28;109184;-85
2023/03/14 03:37:39;;;;;;;;;;;12.00;95.00;;;12.35;61.31;96844.75;4971398;28;124432;-86
2023/03/14 03:40:07;;;;;;;;;;;11.90;94.80;;;12.33;60.88;96841.56;4972277;28;123994;-85
2023/03/14 03:42:34;;;;;;;;;;;11.90;94.70;;;12.33;60.89;96841.56;4985188;28;108904;-85
2023/03/14 03:45:01;;;;;;;;;;;12.00;94.60;;;12.32;60.49;96837.19;4963592;28;108676;-85
2023/03/14 03:47:30;;;;;;;;;;;11.90;94.50;;;12.31;60.33;96838.34;4975281;28;123680;-84
2023/03/14 03:49:56;;;;;;;;;;;11.90;94.30;;;12.32;60.54;96831.63;4971678;28;123939;-84
2023/03/14 03:52:22;;;;;;;;;;;11.90;94.30;;;12.33;59.67;96840.75;4982872;28;108879;-85
2023/03/14 03:54:49;;;;;;;;;;;11.90;94.00;;;12.30;59.81;96830.41;4975300;28;109083;-84
2023/03/14 03:57:15;;;;;;;;;;;11.90;93.90;;;12.28;59.71;96827.25;4973385;28;124646;-81
2023/03/14 03:59:41;;;;;;;;;;;11.90;93.80;;;12.26;59.32;96833.13;4964811;28;124705;-84
2023/03/14 04:02:08;;;;;;;;;;;11.90;93.50;;;12.25;59.14;96839.84;4963961;28;110773;-85
2023/03/14 04:04:34;;;;;;;;;;;11.90;93.40;;;12.24;58.78;96824.41;4972506;28;109748;-80
2023/03/14 04:07:00;;;;;;;;;;;11.90;93.30;;;12.26;58.68;96824.81;4988946;28;123197;-80
2023/03/14 04:09:27;;;;;;;;;;;11.90;93.20;;;12.24;58.39;96827.16;4971056;28;124269;-80
2023/03/14 04:11:53;;;;;;;;;;;11.90;93.10;;;12.24;58.47;96827.16;4971400;28;109246;-83
2023/03/14 04:14:20;;;;;;;;;;;11.80;92.90;;;12.23;58.08;96817.28;4972590;28;109039;-80
2023/03/14 04:16:46;;;;;;;;;;;11.90;92.80;;;12.23;58.00;96808.19;4970973;28;123966;-83
2023/03/14 04:19:12;;;;;;;;;;;11.80;92.70;;;12.22;57.80;96823.97;4990421;28;122705;-83
2023/03/14 04:21:45;;;;;;;;;;;11.80;92.60;;;12.22;57.61;96823.16;4971431;28;109330;-84
2023/03/14 04:24:11;;;;;;;;;;;11.80;92.50;;;12.20;57.75;96819.97;4972112;28;108880;-82
2023/03/14 04:26:37;;;;;;;;;;;11.80;92.50;;;12.17;57.57;96821.53;4973185;28;122814;-81
2023/03/14 04:29:04;;;;;;;;;;;11.80;92.40;;;12.19;57.74;96821.16;4971177;28;124582;-79
2023/03/14 04:31:30;;;;;;;;;;;11.80;92.50;;;12.18;57.41;96823.13;4989914;28;108661;-80
2023/03/14 04:33:57;;;;;;;;;;;11.80;92.40;;;12.17;57.51;96821.53;4963693;28;108570;-83
2023/03/14 04:36:23;;;;;;;;;;;11.80;92.40;;;12.18;57.39;96817.59;4958478;28;124119;-81
2023/03/14 04:38:49;;;;;;;;;;;11.80;92.20;;;12.15;57.01;96804.50;4985988;28;123800;-85
2023/03/14 04:41:16;;;;;;;;;;;11.80;92.10;;;12.14;57.18;96811.19;4970786;28;109044;-84
2023/03/14 04:43:42;;;;;;;;;;;11.70;92.10;;;12.14;57.06;96800.94;4978747;28;108658;-84
2023/03/14 04:46:08;;;;;;;;;;;11.80;92.10;;;12.16;57.15;96806.06;4971101;28;124028;-82
2023/03/14 04:48:35;;;;;;;;;;;11.80;92.10;;;12.17;57.05;96810.47;4970853;28;123901;-82
2023/03/14 04:51:01;;;;;;;;;;;11.80;92.00;;;12.16;57.15;96808.84;4968699;28;110865;-81
2023/03/14 04:53:27;;;;;;;;;;;11.80;92.00;;;12.16;57.07;96786.69;4986790;28;108699;-84
2023/03/14 04:55:55;;;;;;;;;;;11.80;92.00;;;12.19;57.17;96785.94;4973352;28;124159;-80
2023/03/14 04:58:23;;;;;;;;;;;11.80;92.00;;;12.22;56.88;96795.47;4972121;28;123916;-80
2023/03/14 05:00:49;;;;;;;;;;;11.90;92.00;;;12.23;56.89;96781.28;4971321;28;109649;-79
2023/03/14 05:03:17;;;;;;;;;;;11.90;92.00;;;12.26;56.77;96776.97;4986544;28;108594;-80
2023/03/14 05:05:44;;;;;;;;;;;11.90;91.90;;;12.29;56.73;96785.31;4970136;28;124399;-84
2023/03/14 05:08:11;;;;;;;;;;;11.90;91.90;;;12.28;57.05;96789.28;4972432;28;123944;-82
2023/03/14 05:10:37;;;;;;;;;;;11.90;91.90;;;12.30;56.82;96775.81;4971097;28;109439;-80
2023/03/14 05:13:04;;;;;;;;;;;11.90;91.90;;;12.30;56.72;96773.06;4993244;28;108609;-80
2023/03/14 05:15:30;;;;;;;;;;;11.90;91.80;;;12.32;56.93;96772.69;4988512;28;123343;-80
2023/03/14 05:17:56;;;;;;;;;;;11.90;91.90;;;12.32;56.94;96767.94;4970256;28;123739;-82
2023/03/14 05:20:23;;;;;;;;;;;12.00;91.90;;;12.34;56.61;96776.69;4969916;28;109272;-82
2023/03/14 05:22:49;;;;;;;;;;;12.00;91.80;;;12.36;56.58;96784.63;4970278;28;108872;-84
2023/03/14 05:25:15;;;;;;;;;;;12.00;91.70;;;12.34;56.30;96776.69;4970530;28;124168;-83
2023/03/14 05:27:42;;;;;;;;;;;12.00;91.70;;;12.34;56.73;96773.91;4980424;28;124153;-80
2023/03/14 05:30:09;;;;;;;;;;;12.00;91.70;;;12.35;56.29;96771.94;4986714;28;109412;-80
2023/03/14 05:32:35;;;;;;;;;;;12.00;91.70;;;12.36;56.50;96779.88;4974260;28;108616;-79
2023/03/14 05:35:01;;;;;;;;;;;12.00;91.60;;;12.37;56.35;96778.72;4956069;28;124647;-84
2023/03/14 05:37:28;;;;;;;;;;;12.00;91.60;;;12.40;56.32;96765.28;4955946;28;122819;-82
2023/03/14 05:39:54;;;;;;;;;;;12.10;91.60;;;12.42;56.25;96749.91;4955369;28;109640;-80
2023/03/14 05:42:20;;;;;;;;;;;12.10;91.60;;;12.44;56.41;96744.78;4976197;28;109539;-79
2023/03/14 05:44:47;;;;;;;;;;;12.10;91.50;;;12.47;56.11;96754.31;4970830;28;124216;-78
2023/03/14 05:47:13;;;;;;;;;;;12.20;91.50;;;12.48;56.23;96742.06;4973461;28;123764;-80
2023/03/14 05:49:39;;;;;;;;;;;12.10;91.40;;;12.50;56.24;96750.78;4970858;28;109300;-82
2023/03/14 05:52:06;;;;;;;;;;;12.20;91.50;;;12.52;55.91;96754.78;4957472;28;108754;-78
2023/03/14 05:54:32;;;;;;;;;;;12.10;91.40;;;12.52;56.08;96753.97;4963716;28;124315;-79
2023/03/14 05:56:58;;;;;;;;;;;12.20;91.40;;;12.52;55.74;96748.44;5002345;28;124100;-81
2023/03/14 05:59:25;;;;;;;;;;;12.20;91.30;;;12.50;55.53;96748.03;4986811;28;109559;-82
2023/03/14 06:01:51;;;;;;;;;;;12.10;91.20;;;12.49;55.71;96754.72;4958730;28;108753;-81
2023/03/14 06:04:17;;;;;;;;;;;12.10;91.20;;;12.48;55.81;96748.38;4956935;28;124032;-82
2023/03/14 06:06:44;;;;;;;;;;;12.10;91.10;;;12.47;55.54;96751.56;4971161;28;123872;-81
2023/03/14 06:09:10;;;;;;;;;;;12.10;91.10;;;12.47;55.54;96748.78;4964034;28;108879;-80
2023/03/14 06:11:36;;;;;;;;;;;12.10;91.10;;;12.45;55.50;96759.44;4962463;28;108545;-78
2023/03/14 06:14:03;;;;;;;;;;;12.10;91.10;;;12.47;55.62;96757.09;4959788;28;124005;-79
2023/03/14 06:16:29;;;;;;;;;;;12.20;91.10;;;12.52;55.71;96753.97;4954528;28;124057;-77
2023/03/14 06:18:55;;;;;;;;;;;12.20;91.10;;;12.56;55.35;96749.28;4963814;28;109288;-78
2023/03/14 06:21:22;;;;;;;;;;;12.20;91.10;;;12.58;55.32;96760.78;4972322;28;109051;-77
2023/03/14 06:23:48;;;;;;;;;;;12.20;91.00;;;12.60;55.67;96758.47;4954491;28;124457;-78
2023/03/14 06:26:14;;;;;;;;;;;12.20;91.00;;;12.60;55.21;96756.47;4972699;28;123333;-77
2023/03/14 06:28:41;;;;;;;;;;;12.20;90.90;;;12.61;55.37;96760.03;4951586;28;112381;-82
2023/03/14 06:31:07;;;;;;;;;;;12.20;90.80;;;12.60;54.95;96755.69;4994712;28;110698;-83
2023/03/14 06:33:34;;;;;;;;;;;12.30;90.80;;;12.60;54.74;96755.69;4955835;28;123392;-81
2023/03/14 06:36:00;;;;;;;;;;;12.30;90.60;;;12.62;54.78;96758.06;4951823;28;123953;-84
2023/03/14 06:38:26;;;;;;;;;;;12.20;90.50;;;12.63;54.85;96752.16;4955061;28;109299;-83
2023/03/14 06:40:52;;;;;;;;;;;12.30;90.60;;;12.67;54.77;96747.44;4974575;28;109139;-83
2023/03/14 06:43:19;;;;;;;;;;;12.30;90.60;;;12.72;54.74;96747.13;4962322;28;124112;-80
2023/03/14 06:45:45;;;;;;;;;;;12.40;90.60;;;12.77;54.64;96738.47;4952090;28;123879;-82
2023/03/14 06:48:11;;;;;;;;;;;12.40;90.60;;;12.81;54.39;96736.56;4957015;28;109450;-84
2023/03/14 06:50:38;;;;;;;;;;;12.40;90.50;;;12.87;54.00;96736.19;4969805;28;108673;-82
2023/03/14 06:53:04;;;;;;;;;;;12.40;90.40;;;12.89;53.88;96744.94;4963376;28;124876;-81
2023/03/14 06:55:30;;;;;;;;;;;12.40;90.30;;;12.93;53.94;96737.47;4977921;28;123928;-81
2023/03/14 06:57:57;;;;;;;;;;;12.50;90.30;;;12.97;53.73;96741.84;4990826;28;109448;-91
2023/03/14 07:00:23;;;;;;;;;;;12.50;90.30;;;13.05;53.68;96748.28;4966321;28;108785;-83
2023/03/14 07:02:49;;;;;;;;;;;12.60;90.30;;;13.14;53.50;96746.03;4962373;28;123437;-81
2023/03/14 07:05:16;;;;;;;;;;;12.60;90.20;;;13.19;53.35;96753.19;4956930;28;124268;-83
2023/03/14 07:07:42;;;;;;;;;;;12.70;90.10;;;13.19;52.99;96745.69;4954357;28;109384;-82
2023/03/14 07:10:09;;;;;;;;;;;12.70;90.00;;;13.22;53.07;96753.25;4959308;28;109054;-82
2023/03/14 07:12:35;;;;;;;;;;;12.70;90.00;;;13.28;52.65;96755.69;4963286;28;123930;-84
2023/03/14 07:15:02;;;;;;;;;;;12.80;90.00;;;13.37;52.49;96753.41;4991058;28;123833;-80
2023/03/14 07:17:28;;;;;;;;;;;12.80;89.70;;;13.44;52.11;96762.59;4961221;28;110306;-83
2023/03/14 07:19:55;;;;;;;;;;;12.90;89.20;;;13.52;51.94;96766.25;4951842;28;109412;-79
2023/03/14 07:22:21;;;;;;;;;;;12.90;89.20;;;13.55;51.35;96751.59;4963260;28;124428;-80
2023/03/14 07:24:48;;;;;;;;;;;13.00;88.50;;;13.60;51.37;96764.34;4960274;28;123799;-83
2023/03/14 07:27:14;;;;;;;;;;;13.00;88.40;;;13.66;51.39;96754.47;4968298;28;108150;-81
2023/03/14 07:29:40;;;;;;;;;;;13.10;88.10;;;13.69;50.93;96753.69;4972705;28;109700;-84
2023/03/14 07:32:07;;;;;;;;;;;13.10;87.90;;;13.72;51.22;96757.69;4969264;28;124258;-82
2023/03/14 07:34:34;;;;;;;;;;;13.10;87.80;;;13.74;50.79;96761.69;4976988;28;123439;-83
2023/03/14 07:37:00;;;;;;;;;;;13.20;87.40;;;13.74;50.87;96758.91;4964700;28;110474;-83
2023/03/14 07:39:27;;;;;;;;;;;13.20;87.30;;;13.78;50.67;96770.03;4968675;28;108705;-82
2023/03/14 07:41:53;;;;;;;;;;;13.30;87.20;;;13.81;50.26;96766.47;4969413;28;124283;-82
2023/03/14 07:44:19;;;;;;;;;;;13.30;86.90;;;13.83;50.39;96770.47;4962142;28;124559;-87
2023/03/14 07:46:45;;;;;;;;;;;13.30;86.80;;;13.87;50.31;96773.28;4956829;28;110836;-82
2023/03/14 07:49:12;;;;;;;;;;;13.40;86.70;;;13.91;50.23;96766.56;4961654;28;108850;-81
2023/03/14 07:51:38;;;;;;;;;;;13.40;86.60;;;14.00;50.41;96769.03;4961960;28;124326;-83
2023/03/14 07:54:05;;;;;;;;;;;13.50;87.00;;;14.11;50.43;96763.56;4960863;28;125065;-85
2023/03/14 07:56:31;;;;;;;;;;;13.50;87.00;;;14.18;49.93;96771.13;4960227;28;109365;-84
2023/03/14 07:58:57;;;;;;;;;;;13.60;86.40;;;14.20;49.89;96761.25;4958699;28;108806;-86
2023/03/14 08:01:24;;;;;;;;;;;13.70;86.30;;;14.20;49.71;96760.44;4960925;28;124257;-83
2023/03/14 08:03:51;;;;;;;;;;;13.60;85.80;;;14.18;49.90;96763.59;4971580;28;123412;-84
2023/03/14 08:06:17;;;;;;;;;;;13.70;85.90;;;14.21;49.59;96767.59;4957894;28;110521;-89
2023/03/14 08:08:44;;;;;;;;;;;13.70;85.50;;;14.22;49.15;96746.97;4987119;28;108946;-85
2023/03/14 08:11:10;;;;;;;;;;;13.70;85.20;;;14.25;49.16;96747.00;4969187;28;124694;-86
2023/03/14 08:13:37;;;;;;;;;;;13.80;85.00;;;14.26;48.97;96751.34;4962291;28;124603;-85
2023/03/14 08:16:04;;;;;;;;;;;13.80;84.90;;;14.27;49.04;96757.72;4969622;28;107805;-86
2023/03/14 08:18:30;;;;;;;;;;;13.80;84.80;;;14.30;49.01;96751.41;4969197;28;109496;-85
2023/03/14 08:20:57;;;;;;;;;;;13.80;84.70;;;14.35;48.75;96756.59;4954670;28;124605;-87
2023/03/14 08:23:24;;;;;;;;;;;13.90;84.40;;;14.40;48.67;96752.63;4960961;28;124372;-86
2023/03/14 08:25:52;;;;;;;;;;;14.00;84.40;;;14.40;48.43;96747.88;4970374;28;109320;-88
2023/03/14 08:28:20;;;;;;;;;;;14.00;83.70;;;14.39;48.06;96745.47;4963946;28;108676;-87
2023/03/14 08:30:46;;;;;;;;;;;14.00;83.40;;;14.41;48.24;96738.34;4956157;28;124087;-89
2023/03/14 08:33:12;;;;;;;;;;;14.00;83.20;;;14.46;47.75;96729.66;4953067;28;124338;-85
2023/03/14 08:35:39;;;;;;;;;;;14.00;83.00;;;14.51;47.46;96745.16;4966463;28;108585;-86
2023/03/14 08:38:05;;;;;;;;;;;14.00;82.40;;;14.52;47.30;96728.13;4970632;28;108905;-88
2023/03/14 08:40:31;;;;;;;;;;;14.10;82.30;;;14.54;47.55;96728.53;4964435;28;124216;-86
2023/03/14 08:42:58;;;;;;;;;;;13.80;82.10;;;14.62;47.70;96723.03;4976197;28;124341;-84
2023/03/14 08:45:24;;;;;;;;;;;14.10;82.90;;;14.69;47.78;96754.41;4971344;28;108957;-83
2023/03/14 08:47:51;;;;;;;;;;;14.20;82.80;;;14.77;46.60;96755.22;4970885;28;108083;-82
2023/03/14 08:50:17;;;;;;;;;;;14.30;81.60;;;14.82;45.68;96765.97;4961817;28;124310;-83
2023/03/14 08:52:43;;;;;;;;;;;14.30;80.50;;;14.81;45.66;96744.94;4967243;28;124243;-82
2023/03/14 08:55:10;;;;;;;;;;;14.30;80.00;;;14.78;45.79;96752.06;4958355;28;110293;-83
2023/03/14 08:57:36;;;;;;;;;;;14.30;79.80;;;15.05;44.91;96757.34;4967805;28;110029;-86
2023/03/14 09:00:12;;;;;;;;;;;14.50;79.50;;;14.96;45.39;96768.84;4963209;28;124218;-84
2023/03/14 09:02:38;;;;;;;;;;;14.50;79.50;;;14.92;45.67;96776.34;4969983;28;124371;-85
2023/03/14 09:05:05;;;;;;;;;;;14.40;79.70;;;14.88;45.73;96778.31;4974045;28;110815;-83
2023/03/14 09:07:32;;;;;;;;;;;14.40;79.80;;;14.79;46.21;96770.34;4971231;28;108913;-86
2023/03/14 09:09:58;;;;;;;;;;;14.40;80.10;;;14.79;46.50;96775.91;4971968;28;125472;-88
2023/03/14 09:12:24;;;;;;;;;;;14.40;80.30;;;14.79;46.66;96777.88;4968848;28;123189;-86
2023/03/14 09:14:51;;;;;;;;;;;14.40;80.70;;;14.79;46.80;96808.47;4970345;28;110053;-86
2023/03/14 09:17:17;;;;;;;;;;;14.40;81.00;;;14.76;46.93;96798.91;4970498;28;108654;-88
2023/03/14 09:19:43;;;;;;;;;;;14.30;81.10;;;14.75;47.35;96808.47;4968028;28;123988;-86
2023/03/14 09:22:10;;;;;;;;;;;14.30;81.60;;;14.72;47.83;96814.78;4974065;28;124255;-86
2023/03/14 09:24:36;;;;;;;;;;;14.30;82.30;;;14.70;47.98;96827.50;4970572;28;109916;-83
2023/03/14 09:27:02;;;;;;;;;;;14.30;82.50;;;14.68;48.16;96829.84;4984840;28;107727;-85
2023/03/14 09:29:29;;;;;;;;;;;14.30;82.80;;;14.66;48.19;96821.09;4973549;28;124994;-87
2023/03/14 09:31:56;;;;;;;;;;;14.20;83.20;;;14.65;48.43;96830.63;4972407;28;123784;-86
2023/03/14 09:34:23;;;;;;;;;;;14.20;83.00;;;14.65;48.27;96823.09;4964609;28;109318;-86
2023/03/14 09:36:49;;;;;;;;;;;14.20;82.60;;;14.63;48.22;96822.66;4974390;28;109757;-84
2023/03/14 09:39:16;;;;;;;;;;;14.20;82.80;;;14.58;48.42;96832.16;4973647;28;124549;-87
2023/03/14 09:41:44;;;;;;;;;;;14.20;83.00;;;14.50;48.93;96841.59;4979719;28;124086;-86
2023/03/14 09:44:32;;;;;;;;;;;14.20;83.30;;;14.43;48.51;96830.47;5007846;28;110179;-83
2023/03/14 09:47:03;;;;;;;;;;;14.10;83.00;;;14.40;48.89;96833.19;4977035;28;109848;-86
2023/03/14 09:49:38;;;;;;;;;;;14.00;83.00;;;14.35;48.92;96835.16;4976947;28;124570;-86
2023/03/14 09:52:14;;;;;;;;;;;14.00;83.20;;;14.32;49.13;96838.72;4960327;28;123514;-84
2023/03/14 09:55:02;;;;;;;;;;;14.00;83.60;;;14.34;49.37;96838.31;4976467;28;108981;-85
2023/03/14 09:57:29;;;;;;;;;;;14.00;83.80;;;14.36;49.39;96847.84;4973178;28;108200;-86
2023/03/14 10:00:01;;;;;;;;;;;14.00;83.80;;;14.41;48.98;96827.25;4973201;28;125071;-86
2023/03/14 10:02:34;;;;;;;;;;;14.00;83.50;;;14.43;48.80;96824.13;4975742;28;124190;-87
2023/03/14 10:05:01;;;;;;;;;;;14.10;83.20;;;14.46;48.74;96826.91;4981543;28;109539;-86
2023/03/14 10:07:31;;;;;;;;;;;14.10;83.10;;;14.50;48.60;96822.16;4973758;28;109019;-84
2023/03/14 10:09:59;;;;;;;;;;;14.10;83.10;;;14.52;48.40;96819.00;4972190;28;123886;-86
2023/03/14 10:12:33;;;;;;;;;;;14.10;82.80;;;14.49;48.56;96811.44;4977963;28;123615;-88
2023/03/14 10:15:04;;;;;;;;;;;14.10;83.50;;;14.51;48.51;96804.31;4974619;28;109560;-84
2023/03/14 10:17:39;;;;;;;;;;;14.10;82.70;;;14.54;48.35;96806.34;4989996;28;109216;-85
2023/03/14 10:20:05;;;;;;;;;;;14.10;82.90;;;14.61;48.22;96813.13;4973074;28;124927;-86
2023/03/14 10:22:32;;;;;;;;;;;14.20;82.70;;;14.65;48.13;96791.72;4973918;28;124568;-85
2023/03/14 10:25:04;;;;;;;;;;;14.20;82.30;;;14.69;48.32;96790.53;4969171;28;114112;-86
2023/03/14 10:27:33;;;;;;;;;;;14.30;82.70;;;14.76;48.13;96792.56;4974118;28;115263;-86
2023/03/14 10:30:04;;;;;;;;;;;14.40;82.50;;;14.84;47.80;96796.97;4969169;28;124129;-85
2023/03/14 10:32:45;;;;;;;;;;;14.40;82.50;;;14.89;47.40;96804.16;4985421;28;123834;-86
2023/03/14 10:35:15;;;;;;;;;;;14.40;81.60;;;14.91;46.76;96801.75;4968329;28;113379;-87
2023/03/14 10:37:57;;;;;;;;;;;14.50;80.90;;;14.86;46.72;96797.38;4988418;28;113874;-85
2023/03/14 10:40:27;;;;;;;;;;;14.40;80.60;;;14.88;46.91;96808.09;4971457;28;124541;-82
2023/03/14 10:42:55;;;;;;;;;;;14.50;81.00;;;14.87;46.90;96798.97;4969361;28;124894;-81
2023/03/14 10:45:35;;;;;;;;;;;14.50;81.00;;;14.93;46.27;96819.66;4962396;28;113708;-86
2023/03/14 10:48:22;;;;;;;;;;;14.50;80.40;;;14.91;46.43;96788.69;4963697;28;112791;-84
2023/03/14 10:51:18;;;;;;;;;;;14.50;80.30;;;14.91;46.58;96798.97;4966195;28;124708;-85
2023/03/14 10:54:08;;;;;;;;;;;14.50;80.50;;;14.91;46.53;96799.81;4986546;28;124401;-84
2023/03/14 10:56:36;;;;;;;;;;;14.50;80.30;;;14.90;46.50;96814.88;4954754;28;112669;-83
2023/03/14 10:59:06;;;;;;;;;;;14.50;80.30;;;14.88;46.89;96795.00;4954839;28;114411;-85
2023/03/14 11:01:49;;;;;;;;;;;14.50;80.70;;;14.84;47.15;96838.69;4951382;28;124142;-86
2023/03/14 11:04:21;;;;;;;;;;;14.40;80.60;;;14.79;47.12;96834.28;4953057;28;123566;-86
2023/03/14 11:07:04;;;;;;;;;;;14.40;80.80;;;14.70;47.97;96844.97;4951466;28;114798;-83
2023/03/14 11:09:41;;;;;;;;;;;14.40;81.60;;;14.63;48.89;96830.22;4950732;28;113843;-83
2023/03/14 11:12:44;;;;;;;;;;;14.30;83.00;;;14.50;48.96;96827.72;4935328;28;123409;-87
2023/03/14 11:15:20;;;;;;;;;;;14.20;83.00;;;14.42;49.66;96855.84;4957485;28;124006;-85